HBG weather

Hattiesburg Bobby L Chain Municipal Airport
Hattiesburg, Mississippi, United States

Public forecast

Using degrees Fahrenheit for public forecast. Weather courtesy of forecast.io.

METAR (pilot weather report)

Retrieved 2019/09/24 07:53 UTC (16 minutes ago):

KHBG 240753Z AUTO 00000KT 10SM CLR 21/18 A2999 RMK AO2 SLP152 T02060183

TAF (pilot weather forecast)

Retrieved 2019/09/24 06:22 UTC (2 hours ago):

TAF KHBG 240520Z 2406/2506 20003KT P6SM SKC FM241600 31005KT P6SM BKN060 FM250000 32003KT P6SM SCT100